createdAt,value
2022-11-27T00:01:26.199Z,33.70
2022-11-27T00:03:55.225Z,32.40
2022-11-27T00:06:26.848Z,34.83
2022-11-27T00:08:57.014Z,35.70
2022-11-27T00:11:26.949Z,35.57
2022-11-27T00:13:55.472Z,30.00
2022-11-27T00:16:24.817Z,21.30
2022-11-27T00:18:53.461Z,25.40
2022-11-27T00:21:26.231Z,21.60
2022-11-27T00:23:56.562Z,16.77
2022-11-27T00:26:24.989Z,14.30
2022-11-27T00:28:53.150Z,12.90
2022-11-27T00:31:23.189Z,18.60
2022-11-27T00:33:51.495Z,18.47
2022-11-27T00:36:31.930Z,21.33
2022-11-27T00:41:44.678Z,17.17
2022-11-27T00:44:13.339Z,22.30
2022-11-27T00:46:42.194Z,16.20
2022-11-27T00:49:12.059Z,18.90
2022-11-27T00:51:41.761Z,16.50
2022-11-27T00:54:10.280Z,18.83
2022-11-27T00:56:40.443Z,14.20
2022-11-27T00:59:09.469Z,16.63
2022-11-27T01:01:42.021Z,17.00
2022-11-27T01:04:14.005Z,16.03
2022-11-27T01:06:44.645Z,13.47
2022-11-27T01:09:13.864Z,13.93
2022-11-27T01:11:42.838Z,15.70
2022-11-27T01:14:16.098Z,16.40
2022-11-27T01:16:44.346Z,16.93
2022-11-27T01:19:13.976Z,15.67
2022-11-27T01:21:43.389Z,18.27
2022-11-27T01:24:13.113Z,12.50
2022-11-27T01:26:41.507Z,15.73
2022-11-27T01:29:09.630Z,12.10
2022-11-27T01:31:37.684Z,14.33
2022-11-27T01:34:08.538Z,13.23
2022-11-27T01:36:37.098Z,10.90
2022-11-27T01:39:06.918Z,12.83
2022-11-27T01:41:36.588Z,14.00
2022-11-27T01:44:25.722Z,19.37
2022-11-27T01:46:56.642Z,14.40
2022-11-27T01:49:30.913Z,9.97
2022-11-27T01:52:02.679Z,11.77
2022-11-27T01:54:35.530Z,12.23
2022-11-27T01:57:08.935Z,15.80
2022-11-27T01:59:37.150Z,13.33
2022-11-27T02:02:05.375Z,11.00
2022-11-27T02:04:33.462Z,13.33
2022-11-27T02:07:01.725Z,11.70
2022-11-27T02:09:33.638Z,8.63
2022-11-27T02:12:17.107Z,15.73
2022-11-27T02:14:52.476Z,10.40
2022-11-27T02:17:25.693Z,9.37
2022-11-27T02:20:14.144Z,10.90
2022-11-27T02:22:58.993Z,10.63
2022-11-27T02:25:42.855Z,12.00
2022-11-27T02:28:31.484Z,8.90
2022-11-27T02:31:06.904Z,11.47
2022-11-27T02:33:40.595Z,13.77
2022-11-27T02:36:12.777Z,10.67
2022-11-27T02:38:43.785Z,12.87
2022-11-27T02:41:17.128Z,16.97
2022-11-27T02:43:49.805Z,13.67
2022-11-27T02:46:20.513Z,11.30
2022-11-27T02:48:52.617Z,12.07
2022-11-27T02:51:24.207Z,12.97
2022-11-27T02:53:55.065Z,17.63
2022-11-27T02:56:27.745Z,12.07
2022-11-27T02:58:59.894Z,14.67
2022-11-27T03:01:32.968Z,14.90
2022-11-27T03:04:04.261Z,21.33
2022-11-27T03:06:37.658Z,13.13
2022-11-27T03:09:09.765Z,12.73
2022-11-27T03:11:38.470Z,14.33
2022-11-27T03:14:08.569Z,18.53
2022-11-27T03:16:41.877Z,11.07
2022-11-27T03:19:18.248Z,20.67
2022-11-27T03:21:51.312Z,12.50
2022-11-27T03:24:19.445Z,19.90
2022-11-27T03:26:47.427Z,9.53
2022-11-27T03:29:19.248Z,9.10
2022-11-27T03:31:48.981Z,9.53
2022-11-27T03:34:17.378Z,11.67
2022-11-27T03:36:46.728Z,12.03
2022-11-27T03:39:15.185Z,13.97
2022-11-27T03:41:49.601Z,11.63
2022-11-27T03:44:26.260Z,13.60
2022-11-27T03:47:06.809Z,13.07
2022-11-27T03:49:45.479Z,12.50
2022-11-27T03:52:22.967Z,13.37
2022-11-27T03:55:00.893Z,13.70
2022-11-27T03:57:34.809Z,11.70
2022-11-27T04:00:05.710Z,12.57
2022-11-27T04:02:44.225Z,11.17
2022-11-27T04:05:13.181Z,13.10
2022-11-27T04:07:41.825Z,11.47
2022-11-27T04:10:11.356Z,11.73
2022-11-27T04:12:39.563Z,11.00
2022-11-27T04:15:08.821Z,10.70
2022-11-27T04:17:37.543Z,14.67
2022-11-27T04:20:08.352Z,11.77
2022-11-27T04:22:36.309Z,11.10
2022-11-27T04:25:04.345Z,14.10
2022-11-27T04:27:32.328Z,10.80
2022-11-27T04:30:00.406Z,10.53
2022-11-27T04:32:28.297Z,12.47
2022-11-27T04:34:56.248Z,13.67
2022-11-27T04:37:25.593Z,10.40
2022-11-27T04:39:53.561Z,12.73
2022-11-27T04:42:21.448Z,14.10
2022-11-27T04:44:49.553Z,11.77
2022-11-27T04:47:17.565Z,11.80
2022-11-27T04:49:45.519Z,10.30
2022-11-27T04:52:13.457Z,10.30
2022-11-27T04:54:43.059Z,12.33
2022-11-27T04:57:11.201Z,11.50
2022-11-27T04:59:39.241Z,11.13
2022-11-27T05:02:07.223Z,9.63
2022-11-27T05:04:35.248Z,8.20
2022-11-27T05:07:03.462Z,8.63
2022-11-27T05:09:31.828Z,9.00
2022-11-27T05:12:01.691Z,8.20
2022-11-27T05:14:30.169Z,8.53
2022-11-27T05:16:59.702Z,12.17
2022-11-27T05:19:29.486Z,17.30
2022-11-27T05:21:58.051Z,10.10
2022-11-27T05:24:28.017Z,14.57
2022-11-27T05:26:57.131Z,11.40
2022-11-27T05:29:27.238Z,18.43
2022-11-27T05:31:55.680Z,11.13
2022-11-27T05:34:24.327Z,15.80
2022-11-27T05:36:52.583Z,13.03
2022-11-27T05:39:20.983Z,10.03
2022-11-27T05:41:49.244Z,10.40
2022-11-27T05:44:17.568Z,14.37
2022-11-27T05:46:47.286Z,10.10
2022-11-27T05:49:17.191Z,9.80
2022-11-27T05:51:51.051Z,9.57
2022-11-27T05:54:20.190Z,17.00
2022-11-27T05:56:48.429Z,12.90
2022-11-27T05:59:16.702Z,10.23
2022-11-27T06:01:46.630Z,9.97
2022-11-27T06:04:15.004Z,9.27
2022-11-27T06:06:43.127Z,13.80
2022-11-27T06:09:13.513Z,7.50
2022-11-27T06:11:42.334Z,12.03
2022-11-27T06:14:11.107Z,13.43
2022-11-27T06:16:39.643Z,14.00
2022-11-27T06:19:09.893Z,11.90
2022-11-27T06:21:38.346Z,15.73
2022-11-27T06:24:06.909Z,9.43
2022-11-27T06:26:35.805Z,9.87
2022-11-27T06:29:04.380Z,9.23
2022-11-27T06:31:34.090Z,12.93
2022-11-27T06:34:03.320Z,10.37
2022-11-27T06:36:34.449Z,13.00
2022-11-27T06:39:04.519Z,12.80
2022-11-27T06:41:33.426Z,16.83
2022-11-27T06:44:02.658Z,11.60
2022-11-27T06:46:31.629Z,9.80
2022-11-27T06:49:00.209Z,12.73
2022-11-27T06:51:30.896Z,11.97
2022-11-27T06:54:01.443Z,12.50
2022-11-27T06:56:33.051Z,19.07
2022-11-27T06:59:02.935Z,15.90
2022-11-27T07:01:32.377Z,15.30
2022-11-27T07:04:00.967Z,15.13
2022-11-27T07:06:29.510Z,16.37
2022-11-27T07:08:58.037Z,15.47
2022-11-27T07:11:29.891Z,12.93
2022-11-27T07:13:59.713Z,16.27
2022-11-27T07:16:29.369Z,18.13
2022-11-27T07:19:00.442Z,23.80
2022-11-27T07:21:29.057Z,17.57
2022-11-27T07:23:58.015Z,18.70
2022-11-27T07:26:29.212Z,21.20
2022-11-27T07:28:58.036Z,15.03
2022-11-27T07:31:28.844Z,16.80
2022-11-27T07:33:57.560Z,17.97
2022-11-27T07:36:27.768Z,19.37
2022-11-27T07:38:56.291Z,22.80
2022-11-27T07:41:26.957Z,23.93
2022-11-27T07:44:01.151Z,24.60
2022-11-27T07:46:30.288Z,23.47
2022-11-27T07:49:00.689Z,26.40
2022-11-27T07:51:29.587Z,23.40
2022-11-27T07:53:58.019Z,22.47
2022-11-27T07:56:27.661Z,22.63
2022-11-27T07:58:57.202Z,24.03
2022-11-27T08:01:26.994Z,22.70
2022-11-27T08:03:55.229Z,27.53
2022-11-27T08:06:26.750Z,20.30
2022-11-27T08:08:56.778Z,24.87
2022-11-27T08:11:26.861Z,19.40
2022-11-27T08:13:58.686Z,20.07
2022-11-27T08:16:29.007Z,14.33
2022-11-27T08:18:57.621Z,11.10
2022-11-27T08:21:26.144Z,15.37
2022-11-27T08:23:54.352Z,9.43
2022-11-27T08:26:22.471Z,10.07
2022-11-27T08:28:53.743Z,9.60
2022-11-27T08:31:22.301Z,11.40
2022-11-27T08:33:51.847Z,13.67
2022-11-27T08:36:20.235Z,17.70
2022-11-27T08:38:48.713Z,14.00
2022-11-27T08:41:16.840Z,10.47
2022-11-27T08:43:45.088Z,16.13
2022-11-27T08:46:13.743Z,12.53
2022-11-27T08:48:43.053Z,14.23
2022-11-27T08:51:15.234Z,9.83
2022-11-27T08:53:45.626Z,15.60
2022-11-27T08:56:17.617Z,13.27
2022-11-27T08:58:55.924Z,14.83
2022-11-27T09:01:26.246Z,10.53
2022-11-27T09:03:54.734Z,10.60
2022-11-27T09:06:26.006Z,12.00
2022-11-27T09:08:54.044Z,9.40
2022-11-27T09:11:22.170Z,11.27
2022-11-27T09:13:50.505Z,10.20
2022-11-27T09:16:20.538Z,7.03
2022-11-27T09:18:50.157Z,11.73
2022-11-27T09:21:20.339Z,12.20
2022-11-27T09:23:53.747Z,10.13
2022-11-27T09:26:23.643Z,8.90
2022-11-27T09:28:52.122Z,9.63
2022-11-27T09:31:21.582Z,8.80
2022-11-27T09:33:50.290Z,11.97
2022-11-27T09:36:21.050Z,11.40
2022-11-27T09:38:51.182Z,5.33
2022-11-27T09:41:53.509Z,9.80
2022-11-27T09:44:28.572Z,9.90
2022-11-27T09:47:01.165Z,9.10
2022-11-27T09:49:34.862Z,10.03
2022-11-27T09:52:06.562Z,9.43
2022-11-27T09:54:42.412Z,12.67
2022-11-27T09:57:15.335Z,15.90
2022-11-27T09:59:49.139Z,11.17
2022-11-27T10:02:19.705Z,9.30
2022-11-27T10:05:12.411Z,9.13
2022-11-27T10:07:47.261Z,10.67
2022-11-27T10:10:32.419Z,8.37
2022-11-27T10:13:08.274Z,10.00
2022-11-27T10:15:43.673Z,9.87
2022-11-27T10:18:16.114Z,7.17
2022-11-27T10:20:48.675Z,11.80
2022-11-27T10:23:25.263Z,7.03
2022-11-27T10:26:01.116Z,9.60
2022-11-27T10:28:37.867Z,10.13
2022-11-27T10:31:13.114Z,12.07
2022-11-27T10:33:47.656Z,9.83
2022-11-27T10:36:19.003Z,7.57
2022-11-27T10:38:49.188Z,11.17
2022-11-27T10:41:48.315Z,19.47
2022-11-27T10:44:27.452Z,10.30
2022-11-27T10:47:02.553Z,8.83
2022-11-27T10:49:30.777Z,9.40
2022-11-27T10:51:58.817Z,11.27
2022-11-27T10:54:30.488Z,9.37
2022-11-27T10:57:24.260Z,7.33
2022-11-27T11:00:05.725Z,12.80
2022-11-27T11:02:35.570Z,9.80
2022-11-27T11:05:35.101Z,9.93
2022-11-27T11:08:06.104Z,6.13
2022-11-27T11:10:36.598Z,18.03
2022-11-27T11:13:18.649Z,12.37
2022-11-27T11:16:06.985Z,10.47
2022-11-27T11:18:43.979Z,12.33
2022-11-27T11:21:18.295Z,9.60
2022-11-27T11:23:55.479Z,12.43
2022-11-27T11:26:29.098Z,15.80
2022-11-27T11:29:01.945Z,11.20
2022-11-27T11:31:33.329Z,9.13
2022-11-27T11:34:03.841Z,11.83
2022-11-27T11:36:32.143Z,9.33
2022-11-27T11:39:00.471Z,7.23
2022-11-27T11:41:38.145Z,10.13
2022-11-27T11:44:08.004Z,12.10
2022-11-27T11:46:38.524Z,9.27
2022-11-27T11:49:08.937Z,12.17
2022-11-27T11:52:21.124Z,10.90
2022-11-27T11:54:54.169Z,7.50
2022-11-27T11:57:47.736Z,9.47
2022-11-27T12:00:19.043Z,8.83
2022-11-27T12:03:03.553Z,10.17
2022-11-27T12:05:39.808Z,7.37
2022-11-27T12:08:30.206Z,12.47
2022-11-27T12:11:06.583Z,11.20
2022-11-27T12:13:45.063Z,12.37
2022-11-27T12:16:24.079Z,14.80
2022-11-27T12:19:10.531Z,13.50
2022-11-27T12:21:46.301Z,9.53
2022-11-27T12:24:28.399Z,8.17
2022-11-27T12:30:06.601Z,3.80
2022-11-27T12:33:04.144Z,9.70
2022-11-27T12:35:34.026Z,15.53
2022-11-27T12:38:25.052Z,14.00
2022-11-27T12:41:14.710Z,8.53
2022-11-27T12:43:46.590Z,9.77
2022-11-27T12:46:20.078Z,9.37
2022-11-27T12:48:54.718Z,9.40
2022-11-27T12:51:27.985Z,9.70
2022-11-27T12:54:00.459Z,10.97
2022-11-27T12:56:32.243Z,12.07
2022-11-27T12:59:08.352Z,9.93
2022-11-27T13:01:40.575Z,3.83
2022-11-27T13:04:22.479Z,8.40
2022-11-27T13:06:59.332Z,11.40
2022-11-27T13:09:38.105Z,8.20
2022-11-27T13:12:07.031Z,10.23
2022-11-27T13:14:40.102Z,6.97
2022-11-27T13:17:16.121Z,13.23
2022-11-27T13:19:48.731Z,11.90
2022-11-27T13:22:27.421Z,10.07
2022-11-27T13:24:56.025Z,15.00
2022-11-27T13:27:26.948Z,11.10
2022-11-27T13:29:58.219Z,13.20
2022-11-27T13:32:29.334Z,9.30
2022-11-27T13:35:01.271Z,9.70
2022-11-27T13:37:33.286Z,10.20
2022-11-27T13:40:05.074Z,8.77
2022-11-27T13:42:35.590Z,10.57
2022-11-27T13:45:11.144Z,9.27
2022-11-27T13:47:42.249Z,9.60
2022-11-27T13:50:14.436Z,17.93
2022-11-27T13:52:54.711Z,11.90
2022-11-27T13:55:28.149Z,10.33
2022-11-27T13:57:57.953Z,14.37
2022-11-27T14:00:35.377Z,11.03
2022-11-27T14:03:04.125Z,11.77
2022-11-27T14:05:41.040Z,11.57
2022-11-27T14:08:20.494Z,14.10
2022-11-27T14:10:56.582Z,11.33
2022-11-27T14:13:36.326Z,9.00
2022-11-27T14:16:10.705Z,11.67
2022-11-27T14:18:38.752Z,11.30
2022-11-27T14:21:08.276Z,8.10
2022-11-27T14:23:49.155Z,10.17
2022-11-27T14:26:22.367Z,10.10
2022-11-27T14:28:53.083Z,12.37
2022-11-27T14:31:27.340Z,11.30
2022-11-27T14:36:44.965Z,9.10
2022-11-27T14:39:23.243Z,10.57
2022-11-27T14:41:58.110Z,9.83
2022-11-27T14:44:26.358Z,12.20
2022-11-27T14:46:55.254Z,12.57
2022-11-27T14:49:26.149Z,11.40
2022-11-27T14:52:52.674Z,11.17
2022-11-27T14:55:23.073Z,13.23
2022-11-27T14:57:51.912Z,11.70
2022-11-27T15:00:24.270Z,7.57
2022-11-27T15:03:33.445Z,11.63
2022-11-27T15:07:09.149Z,12.63
2022-11-27T15:09:37.674Z,9.47
2022-11-27T15:12:15.352Z,9.70
2022-11-27T15:14:48.191Z,9.47
2022-11-27T15:17:20.424Z,10.50
2022-11-27T15:19:48.716Z,10.53
2022-11-27T15:22:19.094Z,10.60
2022-11-27T15:24:47.372Z,8.37
2022-11-27T15:27:21.527Z,8.97
2022-11-27T15:30:12.696Z,10.43
2022-11-27T15:32:51.462Z,11.47
2022-11-27T15:35:26.145Z,15.37
2022-11-27T15:37:56.875Z,11.23
2022-11-27T15:40:30.708Z,11.13
2022-11-27T15:43:00.125Z,12.40
2022-11-27T15:45:31.339Z,11.13
2022-11-27T15:48:01.167Z,10.43
2022-11-27T15:50:30.604Z,8.80
2022-11-27T15:53:01.042Z,7.80
2022-11-27T15:55:29.305Z,13.63
2022-11-27T15:57:57.204Z,8.17
2022-11-27T16:00:26.722Z,7.83
2022-11-27T16:02:55.049Z,8.63
2022-11-27T16:05:23.074Z,9.50
2022-11-27T16:07:54.931Z,8.40
2022-11-27T16:10:23.562Z,14.20
2022-11-27T16:12:55.123Z,11.67
2022-11-27T16:15:25.811Z,11.13
2022-11-27T16:17:58.181Z,10.97
2022-11-27T16:20:26.770Z,11.40
2022-11-27T16:22:54.767Z,9.80
2022-11-27T16:25:23.036Z,9.27
2022-11-27T16:27:50.925Z,9.03
2022-11-27T16:30:20.045Z,10.53
2022-11-27T16:32:48.051Z,5.77
2022-11-27T16:35:17.555Z,9.70
2022-11-27T16:37:45.558Z,10.30
2022-11-27T16:40:14.966Z,17.20
2022-11-27T16:42:42.932Z,11.20
2022-11-27T16:45:11.419Z,8.10
2022-11-27T16:47:39.398Z,13.67
2022-11-27T16:50:09.952Z,11.97
2022-11-27T16:52:39.476Z,8.57
2022-11-27T16:55:08.235Z,8.80
2022-11-27T16:57:36.251Z,9.40
2022-11-27T17:00:04.465Z,9.83
2022-11-27T17:02:32.756Z,9.10
2022-11-27T17:05:00.765Z,11.30
2022-11-27T17:07:29.019Z,11.67
2022-11-27T17:09:58.527Z,10.97
2022-11-27T17:12:26.711Z,9.43
2022-11-27T17:14:54.932Z,9.10
2022-11-27T17:17:35.466Z,11.60
2022-11-27T17:20:18.387Z,7.63
2022-11-27T17:23:07.120Z,11.27
2022-11-27T17:25:42.368Z,9.77
2022-11-27T17:28:13.539Z,11.33
2022-11-27T17:30:42.177Z,14.27
2022-11-27T17:33:10.556Z,10.63
2022-11-27T17:38:26.073Z,11.47
2022-11-27T17:41:01.488Z,11.17
2022-11-27T17:43:30.444Z,11.53
2022-11-27T17:45:58.917Z,11.13
2022-11-27T17:48:27.544Z,10.50
2022-11-27T17:50:55.909Z,11.20
2022-11-27T17:53:24.002Z,10.47
2022-11-27T17:55:51.995Z,13.90
2022-11-27T17:58:24.942Z,11.00
2022-11-27T18:00:53.007Z,12.77
2022-11-27T18:03:21.043Z,13.20
2022-11-27T18:05:48.991Z,12.20
2022-11-27T18:08:17.079Z,11.03
2022-11-27T18:10:45.102Z,13.37
2022-11-27T18:13:32.378Z,11.70
2022-11-27T18:16:07.109Z,14.20
2022-11-27T18:18:35.637Z,14.57
2022-11-27T18:21:08.622Z,11.93
2022-11-27T18:23:49.629Z,14.03
2022-11-27T18:26:45.532Z,14.33
2022-11-27T18:29:14.584Z,21.20
2022-11-27T18:31:44.109Z,12.00
2022-11-27T18:34:12.129Z,14.23
2022-11-27T18:36:40.102Z,15.80
2022-11-27T18:39:08.078Z,15.43
2022-11-27T18:41:37.249Z,15.40
2022-11-27T18:44:05.430Z,15.40
2022-11-27T18:46:33.860Z,19.03
2022-11-27T18:49:03.592Z,12.10
2022-11-27T18:51:32.697Z,18.97
2022-11-27T18:54:00.761Z,16.50
2022-11-27T18:56:32.350Z,15.30
2022-11-27T18:59:02.997Z,15.23
2022-11-27T19:01:39.689Z,8.00
2022-11-27T19:04:11.995Z,19.13
2022-11-27T19:06:42.339Z,14.50
2022-11-27T19:09:12.131Z,16.90
2022-11-27T19:11:40.767Z,16.93
2022-11-27T19:14:09.632Z,17.90
2022-11-27T19:16:41.952Z,15.57
2022-11-27T19:22:08.107Z,17.97
2022-11-27T19:24:36.345Z,17.77
2022-11-27T19:27:04.319Z,15.10
2022-11-27T19:29:32.425Z,10.80
2022-11-27T19:32:01.389Z,13.40
2022-11-27T19:34:30.894Z,16.73
2022-11-27T19:36:59.134Z,15.43
2022-11-27T19:39:27.844Z,16.90
2022-11-27T19:41:57.830Z,16.40
2022-11-27T19:44:26.107Z,13.73
2022-11-27T19:46:54.608Z,16.57
2022-11-27T19:49:22.687Z,10.57
2022-11-27T19:51:52.359Z,12.93
2022-11-27T19:54:21.944Z,15.37
2022-11-27T19:57:00.195Z,14.03
2022-11-27T19:59:28.272Z,9.20
2022-11-27T20:01:58.007Z,14.13
2022-11-27T20:04:32.689Z,14.40
2022-11-27T20:07:07.799Z,18.33
2022-11-27T20:09:36.256Z,15.50
2022-11-27T20:12:04.751Z,14.53
2022-11-27T20:14:48.222Z,11.90
2022-11-27T20:17:16.447Z,15.70
2022-11-27T20:19:47.384Z,10.30
2022-11-27T20:22:16.935Z,10.10
2022-11-27T20:25:04.435Z,15.13
2022-11-27T20:27:33.946Z,14.20
2022-11-27T20:30:03.942Z,14.80
2022-11-27T20:32:32.426Z,18.47
2022-11-27T20:35:00.849Z,17.50
2022-11-27T20:37:30.506Z,18.50
2022-11-27T20:39:58.984Z,14.83
2022-11-27T20:42:27.416Z,19.57
2022-11-27T20:47:54.145Z,15.67
2022-11-27T20:50:24.412Z,19.93
2022-11-27T20:53:01.815Z,17.93
2022-11-27T20:55:50.685Z,15.33
2022-11-27T20:58:21.488Z,16.50
2022-11-27T21:00:49.968Z,18.40
2022-11-27T21:03:21.263Z,18.83
2022-11-27T21:05:58.703Z,20.93
2022-11-27T21:08:31.629Z,17.13
2022-11-27T21:11:04.627Z,19.03
2022-11-27T21:13:36.307Z,17.10
2022-11-27T21:16:04.939Z,18.93
2022-11-27T21:18:33.184Z,20.13
2022-11-27T21:21:13.877Z,18.77
2022-11-27T21:23:43.915Z,22.70
2022-11-27T21:26:26.582Z,21.73
2022-11-27T21:29:03.317Z,20.63
2022-11-27T21:31:37.783Z,20.07
2022-11-27T21:34:12.384Z,20.70
2022-11-27T21:36:41.153Z,19.83
2022-11-27T21:39:13.747Z,18.00
2022-11-27T21:41:45.015Z,18.63
2022-11-27T21:44:17.133Z,19.30
2022-11-27T21:46:48.370Z,19.93
2022-11-27T21:49:18.907Z,20.13
2022-11-27T21:51:49.553Z,18.67
2022-11-27T21:54:19.571Z,22.40
2022-11-27T21:56:48.041Z,15.67
2022-11-27T21:59:16.854Z,16.30
2022-11-27T22:01:46.200Z,16.57
2022-11-27T22:04:14.458Z,22.67
2022-11-27T22:06:45.170Z,16.13
2022-11-27T22:09:16.100Z,16.20
2022-11-27T22:11:46.863Z,24.50
2022-11-27T22:14:17.271Z,16.13
2022-11-27T22:16:49.855Z,20.00
2022-11-27T22:19:23.125Z,17.40
2022-11-27T22:21:52.642Z,19.93
2022-11-27T22:24:20.727Z,22.57
2022-11-27T22:26:50.389Z,19.67
2022-11-27T22:29:18.510Z,18.07
2022-11-27T22:31:46.614Z,22.37
2022-11-27T22:34:14.623Z,20.53
2022-11-27T22:36:42.618Z,21.97
2022-11-27T22:39:11.017Z,18.90
2022-11-27T22:41:40.397Z,26.30
2022-11-27T22:44:12.124Z,25.20
2022-11-27T22:46:42.320Z,20.93
2022-11-27T22:49:12.660Z,20.27
2022-11-27T22:51:40.712Z,21.23
2022-11-27T22:54:10.338Z,21.77
2022-11-27T22:56:38.509Z,26.70
2022-11-27T23:01:56.858Z,22.13
2022-11-27T23:04:25.074Z,19.37
2022-11-27T23:06:53.126Z,22.40
2022-11-27T23:09:21.167Z,17.30
2022-11-27T23:11:49.326Z,25.90
2022-11-27T23:14:17.561Z,20.73
2022-11-27T23:16:45.956Z,22.40
2022-11-27T23:19:15.724Z,17.60
2022-11-27T23:21:43.953Z,20.10
2022-11-27T23:24:15.242Z,21.30
2022-11-27T23:26:43.989Z,24.53
2022-11-27T23:29:12.337Z,14.97
2022-11-27T23:31:40.950Z,18.10
2022-11-27T23:34:13.216Z,25.77
2022-11-27T23:36:42.942Z,23.10
2022-11-27T23:39:13.617Z,25.30
2022-11-27T23:41:42.214Z,22.80
2022-11-27T23:44:10.540Z,28.63
2022-11-27T23:46:38.861Z,25.60
2022-11-27T23:49:07.021Z,24.77
2022-11-27T23:51:35.479Z,21.17
2022-11-27T23:54:08.540Z,19.97
2022-11-27T23:56:37.372Z,21.53
2022-11-27T23:59:06.201Z,22.70
